createdAt,value
2023-01-01T00:00:12.401Z,6.18
2023-01-01T00:01:12.327Z,6.31
2023-01-01T00:02:12.369Z,6.31
2023-01-01T00:03:12.286Z,6.21
2023-01-01T00:04:12.334Z,6.31
2023-01-01T00:05:12.267Z,6.22
2023-01-01T00:06:12.258Z,6.27
2023-01-01T00:07:12.271Z,6.28
2023-01-01T00:08:12.298Z,6.27
2023-01-01T00:09:12.214Z,6.40
2023-01-01T00:10:12.201Z,6.33
2023-01-01T00:11:12.236Z,6.33
2023-01-01T00:12:12.203Z,6.34
2023-01-01T00:13:12.168Z,6.38
2023-01-01T00:14:12.813Z,6.34
2023-01-01T00:15:12.157Z,6.34
2023-01-01T00:16:12.240Z,6.38
2023-01-01T00:17:12.164Z,6.33
2023-01-01T00:18:12.150Z,6.37
2023-01-01T00:19:12.101Z,6.34
2023-01-01T00:20:12.088Z,6.25
2023-01-01T00:21:12.103Z,6.17
2023-01-01T00:22:52.055Z,6.18
2023-01-01T00:23:13.094Z,6.21
2023-01-01T00:24:12.048Z,6.28
2023-01-01T00:25:12.059Z,6.19
2023-01-01T00:26:12.021Z,6.18
2023-01-01T00:27:12.009Z,6.15
2023-01-01T00:28:12.022Z,6.18
2023-01-01T00:29:12.037Z,6.18
2023-01-01T00:30:12.097Z,6.19
2023-01-01T00:31:11.964Z,6.21
2023-01-01T00:32:12.043Z,6.19
2023-01-01T00:33:12.031Z,6.17
2023-01-01T00:34:11.969Z,6.12
2023-01-01T00:35:11.950Z,6.15
2023-01-01T00:36:11.924Z,6.09
2023-01-01T00:37:11.906Z,6.17
2023-01-01T00:38:11.902Z,6.19
2023-01-01T00:39:11.915Z,6.19
2023-01-01T00:40:11.884Z,6.15
2023-01-01T00:41:11.931Z,6.14
2023-01-01T00:42:11.891Z,6.14
2023-01-01T00:43:11.863Z,6.19
2023-01-01T00:44:11.820Z,6.18
2023-01-01T00:45:17.047Z,6.14
2023-01-01T00:46:12.912Z,6.19
2023-01-01T00:47:11.843Z,6.00
2023-01-01T00:48:11.807Z,6.03
2023-01-01T00:49:11.797Z,5.94
2023-01-01T00:50:11.776Z,5.94
2023-01-01T00:51:11.759Z,5.85
2023-01-01T00:52:11.755Z,5.74
2023-01-01T00:53:11.772Z,5.79
2023-01-01T00:54:11.707Z,5.74
2023-01-01T00:55:11.743Z,5.85
2023-01-01T00:56:11.693Z,5.81
2023-01-01T00:57:11.697Z,5.75
2023-01-01T00:58:11.708Z,5.78
2023-01-01T00:59:11.661Z,5.72
2023-01-01T01:00:11.641Z,5.75
2023-01-01T01:01:11.791Z,5.76
2023-01-01T01:02:11.787Z,5.75
2023-01-01T01:03:11.679Z,5.74
2023-01-01T01:04:11.651Z,5.75
2023-01-01T01:05:11.602Z,5.78
2023-01-01T01:06:11.582Z,5.82
2023-01-01T01:07:11.563Z,5.75
2023-01-01T01:08:11.563Z,5.78
2023-01-01T01:09:11.585Z,5.85
2023-01-01T01:10:11.581Z,5.89
2023-01-01T01:11:11.522Z,5.82
2023-01-01T01:12:17.990Z,5.86
2023-01-01T01:13:12.519Z,5.81
2023-01-01T01:14:11.500Z,5.83
2023-01-01T01:15:11.517Z,5.86
2023-01-01T01:16:11.522Z,5.85
2023-01-01T01:17:11.488Z,5.85
2023-01-01T01:18:11.462Z,5.86
2023-01-01T01:19:11.773Z,5.90
2023-01-01T01:20:11.439Z,5.83
2023-01-01T01:21:11.412Z,5.79
2023-01-01T01:22:11.420Z,5.76
2023-01-01T01:23:11.463Z,5.79
2023-01-01T01:24:11.385Z,5.74
2023-01-01T01:25:11.382Z,5.65
2023-01-01T01:26:11.372Z,5.71
2023-01-01T01:27:11.340Z,5.72
2023-01-01T01:28:11.328Z,5.68
2023-01-01T01:29:11.351Z,5.60
2023-01-01T01:30:11.311Z,5.74
2023-01-01T01:31:11.340Z,5.75
2023-01-01T01:32:11.287Z,5.72
2023-01-01T01:33:11.283Z,5.65
2023-01-01T01:34:16.064Z,5.72
2023-01-01T01:35:12.288Z,5.75
2023-01-01T01:36:11.254Z,5.68
2023-01-01T01:37:11.263Z,5.78
2023-01-01T01:38:11.266Z,5.78
2023-01-01T01:39:11.206Z,5.81
2023-01-01T01:40:11.239Z,5.76
2023-01-01T01:41:26.016Z,5.79
2023-01-01T01:42:12.210Z,5.85
2023-01-01T01:43:11.197Z,5.74
2023-01-01T01:44:11.191Z,5.79
2023-01-01T01:45:11.146Z,5.81
2023-01-01T01:46:11.222Z,5.76
2023-01-01T01:47:11.122Z,5.76
2023-01-01T01:48:11.133Z,5.85
2023-01-01T01:49:11.126Z,5.72
2023-01-01T01:50:11.137Z,5.75
2023-01-01T01:51:11.077Z,5.83
2023-01-01T01:52:11.063Z,5.76
2023-01-01T01:53:11.060Z,5.72
2023-01-01T01:54:11.058Z,5.68
2023-01-01T01:55:11.084Z,5.74
2023-01-01T01:56:11.034Z,5.76
2023-01-01T01:57:11.009Z,5.74
2023-01-01T01:58:11.005Z,5.76
2023-01-01T01:59:11.035Z,5.75
2023-01-01T02:00:11.891Z,5.72
2023-01-01T02:01:11.105Z,5.76
2023-01-01T02:02:11.226Z,5.72
2023-01-01T02:03:11.078Z,5.74
2023-01-01T02:04:10.932Z,5.64
2023-01-01T02:05:10.928Z,5.67
2023-01-01T02:06:10.969Z,5.58
2023-01-01T02:07:10.916Z,5.60
2023-01-01T02:08:10.888Z,5.53
2023-01-01T02:09:10.915Z,5.53
2023-01-01T02:10:10.881Z,5.57
2023-01-01T02:11:10.884Z,5.57
2023-01-01T02:12:10.882Z,5.51
2023-01-01T02:13:10.823Z,5.56
2023-01-01T02:14:10.829Z,5.58
2023-01-01T02:15:10.875Z,5.51
2023-01-01T02:16:10.987Z,5.43
2023-01-01T02:17:10.828Z,5.48
2023-01-01T02:18:10.814Z,5.39
2023-01-01T02:19:10.755Z,5.45
2023-01-01T02:20:10.757Z,5.40
2023-01-01T02:21:10.740Z,5.38
2023-01-01T02:22:10.799Z,5.36
2023-01-01T02:23:10.756Z,5.36
2023-01-01T02:24:10.755Z,5.35
2023-01-01T02:25:10.688Z,5.40
2023-01-01T02:26:10.683Z,5.33
2023-01-01T02:27:10.679Z,5.39
2023-01-01T02:28:10.676Z,5.45
2023-01-01T02:29:10.686Z,5.30
2023-01-01T02:30:11.673Z,5.36
2023-01-01T02:31:10.717Z,5.40
2023-01-01T02:32:10.617Z,5.42
2023-01-01T02:33:10.648Z,5.42
2023-01-01T02:34:10.614Z,5.39
2023-01-01T02:35:10.587Z,5.35
2023-01-01T02:36:10.568Z,5.46
2023-01-01T02:37:10.603Z,5.40
2023-01-01T02:38:10.593Z,5.40
2023-01-01T02:39:10.553Z,5.53
2023-01-01T02:40:10.561Z,5.40
2023-01-01T02:41:10.541Z,5.38
2023-01-01T02:42:10.507Z,5.43
2023-01-01T02:43:10.515Z,5.45
2023-01-01T02:44:10.520Z,5.46
2023-01-01T02:45:10.492Z,5.49
2023-01-01T02:46:10.544Z,5.45
2023-01-01T02:47:10.471Z,5.45
2023-01-01T02:48:10.440Z,5.36
2023-01-01T02:49:10.965Z,5.39
2023-01-01T02:50:10.421Z,5.36
2023-01-01T02:51:10.423Z,5.30
2023-01-01T02:52:10.394Z,5.35
2023-01-01T02:53:10.391Z,5.28
2023-01-01T02:54:10.447Z,5.21
2023-01-01T02:55:10.365Z,5.25
2023-01-01T02:56:10.362Z,5.27
2023-01-01T02:57:10.363Z,5.21
2023-01-01T02:58:10.370Z,5.28
2023-01-01T02:59:10.342Z,5.28
2023-01-01T03:00:10.315Z,5.22
2023-01-01T03:01:10.389Z,5.20
2023-01-01T03:02:10.385Z,5.17
2023-01-01T03:03:10.484Z,5.13
2023-01-01T03:04:10.253Z,5.21
2023-01-01T03:05:10.247Z,5.09
2023-01-01T03:06:10.245Z,5.24
2023-01-01T03:07:10.265Z,5.07
2023-01-01T03:08:10.260Z,5.18
2023-01-01T03:09:10.211Z,5.15
2023-01-01T03:10:10.209Z,5.12
2023-01-01T03:11:10.190Z,5.13
2023-01-01T03:12:10.172Z,5.09
2023-01-01T03:13:10.203Z,5.20
2023-01-01T03:14:10.165Z,5.15
2023-01-01T03:15:10.133Z,5.09
2023-01-01T03:16:10.191Z,5.15
2023-01-01T03:17:10.149Z,5.18
2023-01-01T03:18:10.134Z,5.09
2023-01-01T03:19:10.108Z,5.10
2023-01-01T03:20:10.086Z,5.10
2023-01-01T03:21:39.754Z,5.07
2023-01-01T03:23:09.577Z,5.09
2023-01-01T03:24:09.570Z,5.10
2023-01-01T03:25:09.550Z,5.06
2023-01-01T03:26:09.564Z,4.99
2023-01-01T03:27:09.555Z,4.99
2023-01-01T03:28:09.528Z,5.03
2023-01-01T03:29:09.504Z,5.00
2023-01-01T03:30:09.566Z,5.06
2023-01-01T03:31:09.490Z,5.03
2023-01-01T03:32:09.452Z,4.96
2023-01-01T03:33:09.465Z,4.97
2023-01-01T03:34:09.426Z,4.91
2023-01-01T03:35:09.436Z,4.94
2023-01-01T03:36:09.442Z,4.92
2023-01-01T03:37:09.422Z,5.02
2023-01-01T03:38:09.418Z,4.88
2023-01-01T03:39:09.373Z,4.94
2023-01-01T03:40:09.364Z,4.97
2023-01-01T03:41:09.394Z,5.02
2023-01-01T03:42:09.380Z,4.99
2023-01-01T03:43:09.353Z,5.00
2023-01-01T03:44:09.367Z,5.07
2023-01-01T03:45:09.310Z,5.03
2023-01-01T03:46:09.359Z,5.07
2023-01-01T03:47:10.264Z,5.07
2023-01-01T03:48:09.285Z,5.09
2023-01-01T03:49:09.300Z,5.09
2023-01-01T03:50:09.281Z,5.07
2023-01-01T03:51:09.310Z,5.12
2023-01-01T03:52:09.246Z,4.99
2023-01-01T03:53:09.238Z,5.04
2023-01-01T03:54:09.244Z,4.99
2023-01-01T03:55:09.231Z,4.94
2023-01-01T03:56:09.206Z,5.02
2023-01-01T03:57:09.180Z,4.96
2023-01-01T03:58:09.179Z,4.86
2023-01-01T03:59:09.164Z,4.86
2023-01-01T04:00:09.160Z,4.86
2023-01-01T04:01:09.218Z,4.88
2023-01-01T04:02:09.318Z,4.89
2023-01-01T04:03:09.205Z,4.96
2023-01-01T04:04:09.100Z,4.86
2023-01-01T04:05:09.091Z,5.02
2023-01-01T04:06:09.111Z,4.94
2023-01-01T04:07:15.258Z,4.88
2023-01-01T04:08:10.065Z,4.99
2023-01-01T04:09:09.129Z,4.94
2023-01-01T04:10:09.059Z,4.88
2023-01-01T04:11:09.035Z,4.80
2023-01-01T04:12:09.051Z,4.82
2023-01-01T04:13:09.052Z,4.80
2023-01-01T04:14:08.998Z,4.82
2023-01-01T04:15:09.002Z,4.78
2023-01-01T04:16:09.048Z,4.84
2023-01-01T04:17:08.973Z,4.77
2023-01-01T04:18:08.950Z,4.84
2023-01-01T04:19:08.926Z,4.73
2023-01-01T04:20:08.923Z,4.82
2023-01-01T04:21:08.933Z,4.78
2023-01-01T04:22:08.903Z,4.66
2023-01-01T04:23:08.919Z,4.66
2023-01-01T04:24:08.881Z,4.65
2023-01-01T04:25:08.869Z,4.66
2023-01-01T04:26:08.874Z,4.67
2023-01-01T04:27:08.871Z,4.63
2023-01-01T04:28:08.842Z,4.58
2023-01-01T04:29:08.825Z,4.55
2023-01-01T04:30:08.840Z,4.59
2023-01-01T04:31:08.794Z,4.62
2023-01-01T04:32:08.811Z,4.58
2023-01-01T04:33:08.784Z,4.50
2023-01-01T04:34:08.781Z,4.50
2023-01-01T04:35:08.758Z,4.48
2023-01-01T04:36:08.738Z,4.42
2023-01-01T04:37:13.095Z,4.48
2023-01-01T04:38:08.759Z,4.37
2023-01-01T04:39:08.716Z,4.44
2023-01-01T04:40:08.718Z,4.40
2023-01-01T04:41:08.715Z,4.40
2023-01-01T04:42:08.669Z,4.40
2023-01-01T04:43:08.723Z,4.45
2023-01-01T04:44:08.670Z,4.50
2023-01-01T04:45:08.670Z,4.42
2023-01-01T04:46:08.728Z,4.41
2023-01-01T04:47:08.617Z,4.41
2023-01-01T04:48:08.607Z,4.48
2023-01-01T04:49:08.621Z,4.41
2023-01-01T04:50:08.645Z,4.47
2023-01-01T04:51:08.597Z,4.48
2023-01-01T04:52:08.577Z,4.52
2023-01-01T04:53:08.564Z,4.52
2023-01-01T04:54:08.592Z,4.42
2023-01-01T04:55:08.537Z,4.42
2023-01-01T04:56:08.525Z,4.59
2023-01-01T04:57:08.540Z,4.54
2023-01-01T04:58:08.506Z,4.58
2023-01-01T04:59:08.495Z,4.54
2023-01-01T05:00:08.521Z,4.48
2023-01-01T05:01:16.602Z,4.48
2023-01-01T05:02:08.664Z,4.54
2023-01-01T05:03:08.497Z,4.54
2023-01-01T05:04:08.441Z,4.54
2023-01-01T05:05:08.414Z,4.55
2023-01-01T05:06:08.436Z,4.63
2023-01-01T05:07:08.408Z,4.60
2023-01-01T05:08:08.402Z,4.58
2023-01-01T05:09:08.371Z,4.60
2023-01-01T05:10:08.386Z,4.60
2023-01-01T05:11:08.355Z,4.67
2023-01-01T05:12:08.467Z,4.66
2023-01-01T05:13:08.334Z,4.72
2023-01-01T05:14:08.346Z,4.69
2023-01-01T05:15:08.346Z,4.66
2023-01-01T05:16:08.323Z,4.58
2023-01-01T05:17:08.316Z,4.59
2023-01-01T05:18:08.298Z,4.63
2023-01-01T05:19:08.292Z,4.55
2023-01-01T05:20:08.289Z,4.59
2023-01-01T05:21:08.262Z,4.62
2023-01-01T05:22:10.896Z,4.66
2023-01-01T05:23:08.237Z,4.66
2023-01-01T05:24:08.225Z,4.69
2023-01-01T05:25:08.213Z,4.67
2023-01-01T05:26:08.216Z,4.59
2023-01-01T05:27:08.235Z,4.59
2023-01-01T05:28:08.163Z,4.59
2023-01-01T05:29:15.623Z,4.50
2023-01-01T05:30:09.177Z,4.41
2023-01-01T05:31:08.170Z,4.45
2023-01-01T05:32:37.831Z,4.42
2023-01-01T05:33:37.769Z,4.40
2023-01-01T05:34:38.819Z,4.45
2023-01-01T05:35:37.779Z,4.42
2023-01-01T05:36:37.774Z,4.42
2023-01-01T05:37:37.732Z,4.45
2023-01-01T05:38:37.753Z,4.45
2023-01-01T05:39:37.752Z,4.48
2023-01-01T05:40:37.705Z,4.34
2023-01-01T05:41:37.722Z,4.40
2023-01-01T05:42:37.713Z,4.32
2023-01-01T05:43:37.658Z,4.36
2023-01-01T05:44:37.668Z,4.26
2023-01-01T05:45:37.671Z,4.40
2023-01-01T05:46:37.678Z,4.41
2023-01-01T05:47:37.649Z,4.34
2023-01-01T05:48:37.637Z,4.30
2023-01-01T05:49:37.604Z,4.29
2023-01-01T05:50:37.581Z,4.30
2023-01-01T05:52:07.472Z,4.29
2023-01-01T05:53:07.413Z,4.27
2023-01-01T05:54:07.428Z,4.16
2023-01-01T05:55:07.442Z,4.15
2023-01-01T05:56:07.400Z,4.11
2023-01-01T05:57:07.410Z,4.08
2023-01-01T05:58:07.362Z,4.06
2023-01-01T05:59:07.352Z,4.08
2023-01-01T06:00:07.383Z,4.20
2023-01-01T06:01:07.376Z,4.20
2023-01-01T06:02:07.433Z,4.20
2023-01-01T06:03:07.325Z,4.05
2023-01-01T06:04:07.358Z,4.04
2023-01-01T06:05:07.293Z,4.02
2023-01-01T06:06:07.274Z,3.98
2023-01-01T06:07:07.277Z,4.00
2023-01-01T06:08:07.284Z,3.94
2023-01-01T06:09:07.289Z,3.96
2023-01-01T06:10:07.269Z,4.04
2023-01-01T06:11:07.240Z,4.04
2023-01-01T06:12:07.213Z,4.00
2023-01-01T06:13:12.943Z,4.02
2023-01-01T06:14:08.262Z,3.91
2023-01-01T06:15:07.169Z,4.05
2023-01-01T06:16:07.161Z,3.96
2023-01-01T06:17:07.214Z,3.91
2023-01-01T06:18:07.156Z,3.93
2023-01-01T06:19:07.153Z,3.90
2023-01-01T06:20:07.171Z,3.90
2023-01-01T06:21:07.102Z,3.96
2023-01-01T06:22:07.109Z,3.96
2023-01-01T06:23:07.114Z,4.00
2023-01-01T06:24:07.079Z,3.96
2023-01-01T06:25:07.056Z,3.98
2023-01-01T06:26:07.064Z,3.98
2023-01-01T06:27:07.108Z,4.00
2023-01-01T06:28:07.047Z,3.93
2023-01-01T06:29:07.024Z,4.00
2023-01-01T06:30:07.020Z,4.02
2023-01-01T06:31:07.076Z,3.97
2023-01-01T06:32:07.000Z,4.09
2023-01-01T06:33:06.975Z,4.11
2023-01-01T06:34:06.961Z,4.09
2023-01-01T06:35:06.963Z,4.06
2023-01-01T06:36:06.988Z,4.06
2023-01-01T06:37:07.365Z,4.11
2023-01-01T06:38:06.912Z,4.08
2023-01-01T06:39:06.949Z,4.18
2023-01-01T06:40:06.901Z,4.22
2023-01-01T06:41:06.899Z,4.20
2023-01-01T06:42:06.899Z,4.24
2023-01-01T06:43:06.881Z,4.15
2023-01-01T06:44:06.844Z,4.24
2023-01-01T06:45:06.855Z,4.26
2023-01-01T06:46:06.863Z,4.26
2023-01-01T06:47:06.844Z,4.33
2023-01-01T06:48:06.847Z,4.23
2023-01-01T06:49:06.787Z,4.30
2023-01-01T06:50:06.793Z,4.29
2023-01-01T06:51:06.797Z,4.29
2023-01-01T06:52:06.883Z,4.33
2023-01-01T06:53:06.773Z,4.32
2023-01-01T06:54:06.773Z,4.34
2023-01-01T06:55:06.723Z,4.29
2023-01-01T06:56:06.730Z,4.11
2023-01-01T06:57:06.704Z,4.18
2023-01-01T06:58:06.711Z,4.11
2023-01-01T06:59:06.726Z,4.12
2023-01-01T07:00:06.721Z,4.05
2023-01-01T07:01:08.846Z,3.94
2023-01-01T07:02:06.767Z,3.94
2023-01-01T07:03:06.763Z,3.94
2023-01-01T07:04:06.649Z,3.90
2023-01-01T07:05:06.628Z,3.88
2023-01-01T07:06:06.617Z,3.86
2023-01-01T07:07:06.595Z,3.90
2023-01-01T07:08:06.596Z,3.87
2023-01-01T07:09:06.613Z,3.91
2023-01-01T07:10:06.560Z,3.87
2023-01-01T07:11:06.556Z,3.88
2023-01-01T07:12:06.533Z,3.88
2023-01-01T07:13:06.532Z,3.80
2023-01-01T07:14:06.538Z,3.88
2023-01-01T07:15:06.522Z,3.91
2023-01-01T07:16:12.380Z,3.86
2023-01-01T07:17:07.483Z,3.96
2023-01-01T07:18:06.468Z,3.93
2023-01-01T07:19:06.484Z,3.93
2023-01-01T07:20:06.479Z,3.87
2023-01-01T07:21:06.453Z,3.86
2023-01-01T07:22:06.426Z,3.84
2023-01-01T07:23:06.409Z,3.90
2023-01-01T07:24:06.429Z,3.86
2023-01-01T07:25:06.387Z,3.84
2023-01-01T07:26:06.416Z,3.83
2023-01-01T07:27:06.388Z,3.84
2023-01-01T07:28:06.363Z,3.86
2023-01-01T07:29:08.218Z,3.88
2023-01-01T07:30:06.342Z,3.90
2023-01-01T07:31:06.363Z,3.87
2023-01-01T07:32:06.329Z,3.91
2023-01-01T07:33:06.337Z,3.94
2023-01-01T07:34:06.341Z,3.91
2023-01-01T07:35:06.276Z,4.02
2023-01-01T07:36:06.286Z,4.05
2023-01-01T07:37:06.291Z,3.88
2023-01-01T07:38:06.274Z,3.87
2023-01-01T07:39:06.264Z,3.87
2023-01-01T07:40:06.250Z,3.98
2023-01-01T07:41:06.231Z,4.00
2023-01-01T07:42:10.821Z,4.04
2023-01-01T07:43:06.206Z,4.08
2023-01-01T07:44:06.213Z,4.00
2023-01-01T07:45:06.230Z,4.16
2023-01-01T07:46:06.218Z,4.08
2023-01-01T07:47:06.152Z,4.08
2023-01-01T07:48:06.135Z,4.20
2023-01-01T07:49:06.140Z,4.18
2023-01-01T07:50:06.142Z,4.20
2023-01-01T07:51:06.107Z,4.24
2023-01-01T07:52:06.121Z,4.26
2023-01-01T07:53:06.095Z,4.30
2023-01-01T07:54:07.562Z,4.30
2023-01-01T07:55:06.078Z,4.32
2023-01-01T07:56:06.069Z,4.33
2023-01-01T07:57:06.121Z,4.34
2023-01-01T07:58:06.029Z,4.36
2023-01-01T07:59:06.006Z,4.50
2023-01-01T08:00:06.059Z,4.54
2023-01-01T08:01:06.036Z,4.40
2023-01-01T08:02:06.092Z,4.41
2023-01-01T08:03:06.058Z,4.47
2023-01-01T08:04:05.979Z,4.54
2023-01-01T08:05:05.942Z,4.63
2023-01-01T08:06:05.960Z,4.66
2023-01-01T08:07:05.957Z,4.66
2023-01-01T08:08:05.904Z,4.72
2023-01-01T08:09:05.902Z,4.78
2023-01-01T08:10:05.939Z,4.78
2023-01-01T08:11:05.884Z,4.73
2023-01-01T08:12:05.906Z,4.85
2023-01-01T08:13:05.866Z,4.80
2023-01-01T08:14:05.837Z,4.91
2023-01-01T08:15:05.832Z,4.86
2023-01-01T08:16:05.883Z,4.97
2023-01-01T08:17:05.825Z,4.94
2023-01-01T08:18:05.817Z,5.10
2023-01-01T08:19:05.784Z,4.99
2023-01-01T08:20:05.807Z,4.99
2023-01-01T08:21:05.792Z,5.00
2023-01-01T08:22:05.753Z,5.06
2023-01-01T08:23:07.602Z,5.06
2023-01-01T08:24:05.785Z,5.10
2023-01-01T08:25:05.715Z,5.13
2023-01-01T08:26:05.705Z,5.06
2023-01-01T08:27:05.775Z,5.06
2023-01-01T08:28:05.717Z,5.09
2023-01-01T08:29:05.702Z,5.20
2023-01-01T08:30:05.700Z,5.20
2023-01-01T08:31:05.686Z,5.22
2023-01-01T08:32:05.718Z,5.18
2023-01-01T08:33:05.654Z,5.25
2023-01-01T08:34:05.642Z,5.33
2023-01-01T08:35:05.628Z,5.31
2023-01-01T08:36:05.615Z,5.35
2023-01-01T08:37:05.580Z,5.39
2023-01-01T08:38:05.587Z,5.38
2023-01-01T08:39:05.563Z,5.42
2023-01-01T08:40:05.586Z,5.46
2023-01-01T08:41:05.577Z,5.45
2023-01-01T08:42:10.267Z,5.54
2023-01-01T08:43:06.556Z,5.46
2023-01-01T08:44:05.547Z,5.54
2023-01-01T08:45:05.505Z,5.57
2023-01-01T08:46:05.511Z,5.60
2023-01-01T08:47:05.516Z,5.61
2023-01-01T08:48:05.520Z,5.61
2023-01-01T08:49:05.462Z,5.58
2023-01-01T08:50:05.466Z,5.68
2023-01-01T08:51:05.439Z,5.67
2023-01-01T08:52:05.450Z,5.76
2023-01-01T08:53:05.444Z,5.76
2023-01-01T08:54:05.388Z,5.79
2023-01-01T08:55:05.404Z,5.79
2023-01-01T08:56:05.393Z,5.93
2023-01-01T08:57:05.380Z,5.91
2023-01-01T08:58:05.386Z,5.86
2023-01-01T08:59:05.332Z,5.96
2023-01-01T09:00:05.377Z,6.01
2023-01-01T09:01:05.420Z,6.03
2023-01-01T09:02:05.495Z,6.06
2023-01-01T09:03:05.541Z,6.18
2023-01-01T09:04:07.983Z,6.14
2023-01-01T09:05:06.280Z,6.18
2023-01-01T09:06:05.331Z,6.28
2023-01-01T09:07:05.261Z,6.28
2023-01-01T09:08:05.249Z,6.25
2023-01-01T09:09:05.247Z,6.28
2023-01-01T09:10:05.210Z,6.36
2023-01-01T09:11:05.198Z,6.31
2023-01-01T09:12:05.227Z,6.38
2023-01-01T09:13:05.231Z,6.37
2023-01-01T09:14:05.189Z,6.36
2023-01-01T09:15:05.168Z,6.51
2023-01-01T09:16:05.169Z,6.61
2023-01-01T09:17:05.130Z,6.54
2023-01-01T09:18:05.163Z,6.55
2023-01-01T09:19:05.121Z,6.54
2023-01-01T09:20:05.129Z,6.67
2023-01-01T09:21:05.096Z,6.74
2023-01-01T09:22:05.139Z,6.70
2023-01-01T09:23:06.123Z,6.67
2023-01-01T09:24:05.066Z,6.77
2023-01-01T09:25:05.059Z,6.80
2023-01-01T09:26:05.027Z,6.80
2023-01-01T09:27:05.061Z,6.77
2023-01-01T09:28:05.044Z,6.79
2023-01-01T09:29:05.010Z,6.85
2023-01-01T09:30:05.008Z,6.87
2023-01-01T09:31:05.110Z,7.02
2023-01-01T09:32:05.080Z,7.03
2023-01-01T09:33:04.949Z,7.07
2023-01-01T09:34:04.947Z,7.16
2023-01-01T09:35:04.959Z,7.03
2023-01-01T09:36:04.932Z,7.17
2023-01-01T09:37:04.939Z,7.21
2023-01-01T09:38:04.910Z,7.21
2023-01-01T09:39:04.884Z,7.27
2023-01-01T09:40:04.888Z,7.32
2023-01-01T09:41:04.863Z,7.34
2023-01-01T09:42:04.874Z,7.42
2023-01-01T09:43:04.877Z,7.53
2023-01-01T09:44:04.828Z,7.58
2023-01-01T09:45:04.845Z,7.71
2023-01-01T09:46:04.848Z,7.69
2023-01-01T09:47:04.805Z,7.82
2023-01-01T09:48:04.832Z,7.83
2023-01-01T09:49:04.963Z,7.90
2023-01-01T09:50:04.774Z,7.97
2023-01-01T09:51:04.750Z,8.12
2023-01-01T09:52:04.737Z,8.29
2023-01-01T09:53:04.759Z,8.43
2023-01-01T09:54:04.738Z,8.45
2023-01-01T09:55:04.747Z,8.52
2023-01-01T09:56:04.698Z,8.55
2023-01-01T09:57:04.692Z,8.61
2023-01-01T09:58:04.708Z,8.70
2023-01-01T09:59:04.670Z,8.71
2023-01-01T10:00:04.689Z,8.84
2023-01-01T10:01:04.763Z,8.96
2023-01-01T10:02:04.744Z,8.96
2023-01-01T10:03:04.634Z,9.04
2023-01-01T10:04:04.712Z,9.17
2023-01-01T10:05:04.627Z,9.28
2023-01-01T10:06:04.625Z,9.39
2023-01-01T10:07:04.623Z,9.46
2023-01-01T10:08:04.559Z,9.43
2023-01-01T10:09:04.546Z,9.57
2023-01-01T10:10:04.558Z,9.61
2023-01-01T10:11:04.561Z,9.65
2023-01-01T10:12:05.204Z,9.72
2023-01-01T10:13:04.571Z,9.74
2023-01-01T10:14:04.514Z,9.84
2023-01-01T10:15:04.501Z,9.89
2023-01-01T10:16:04.581Z,9.97
2023-01-01T10:17:04.587Z,9.93
2023-01-01T10:18:04.498Z,10.12
2023-01-01T10:19:04.508Z,10.09
2023-01-01T10:20:04.468Z,10.15
2023-01-01T10:21:04.424Z,10.20
2023-01-01T10:22:04.433Z,10.34
2023-01-01T10:23:04.437Z,10.27
2023-01-01T10:24:04.380Z,10.33
2023-01-01T10:25:04.374Z,10.41
2023-01-01T10:26:04.384Z,10.47
2023-01-01T10:27:04.373Z,10.55
2023-01-01T10:28:04.361Z,10.55
2023-01-01T10:29:04.375Z,10.67
2023-01-01T10:30:05.261Z,10.70
2023-01-01T10:31:04.330Z,10.78
2023-01-01T10:32:04.346Z,10.79
2023-01-01T10:33:04.302Z,10.84
2023-01-01T10:34:04.288Z,10.89
2023-01-01T10:35:04.262Z,10.89
2023-01-01T10:36:04.310Z,10.91
2023-01-01T10:37:04.254Z,11.14
2023-01-01T10:38:04.266Z,11.22
2023-01-01T10:39:04.254Z,11.28
2023-01-01T10:40:04.240Z,11.35
2023-01-01T10:41:04.208Z,11.39
2023-01-01T10:42:04.186Z,11.49
2023-01-01T10:43:04.209Z,11.57
2023-01-01T10:44:04.185Z,11.64
2023-01-01T10:45:04.165Z,11.70
2023-01-01T10:46:04.183Z,11.69
2023-01-01T10:47:04.126Z,11.79
2023-01-01T10:48:04.139Z,11.94
2023-01-01T10:49:04.106Z,11.99
2023-01-01T10:50:04.115Z,12.05
2023-01-01T10:51:04.107Z,12.13
2023-01-01T10:52:04.114Z,12.24
2023-01-01T10:53:04.099Z,12.28
2023-01-01T10:54:04.049Z,12.29
2023-01-01T10:55:04.086Z,12.34
2023-01-01T10:56:04.042Z,12.46
2023-01-01T10:57:04.021Z,12.54
2023-01-01T10:58:03.998Z,12.38
2023-01-01T10:59:04.021Z,12.54
2023-01-01T11:00:03.979Z,12.49
2023-01-01T11:01:04.131Z,12.67
2023-01-01T11:02:04.245Z,12.68
2023-01-01T11:03:04.011Z,12.60
2023-01-01T11:04:03.928Z,12.62
2023-01-01T11:05:10.162Z,12.77
2023-01-01T11:06:04.925Z,12.85
2023-01-01T11:07:03.919Z,12.92
2023-01-01T11:08:03.916Z,13.03
2023-01-01T11:09:03.886Z,13.07
2023-01-01T11:10:04.750Z,13.05
2023-01-01T11:11:03.849Z,13.08
2023-01-01T11:12:11.948Z,13.15
2023-01-01T11:13:06.125Z,13.08
2023-01-01T11:14:03.841Z,13.11
2023-01-01T11:15:03.800Z,13.11
2023-01-01T11:16:03.802Z,13.10
2023-01-01T11:17:03.819Z,13.10
2023-01-01T11:18:03.802Z,13.07
2023-01-01T11:19:03.774Z,13.11
2023-01-01T11:20:03.743Z,13.15
2023-01-01T11:21:03.734Z,13.05
2023-01-01T11:22:03.725Z,13.11
2023-01-01T11:23:03.726Z,13.08
2023-01-01T11:24:03.845Z,13.08
2023-01-01T11:25:03.734Z,13.23
2023-01-01T11:26:03.683Z,13.39
2023-01-01T11:27:03.682Z,13.45
2023-01-01T11:28:03.657Z,13.45
2023-01-01T11:29:03.678Z,13.57
2023-01-01T11:30:03.640Z,13.51
2023-01-01T11:31:03.710Z,13.66
2023-01-01T11:32:03.646Z,13.63
2023-01-01T11:33:03.598Z,13.66
2023-01-01T11:34:03.599Z,13.78
2023-01-01T11:35:03.608Z,13.66
2023-01-01T11:36:03.601Z,13.84
2023-01-01T11:37:03.573Z,13.89
2023-01-01T11:38:03.552Z,13.91
2023-01-01T11:39:03.562Z,13.95
2023-01-01T11:40:03.554Z,14.06
2023-01-01T11:41:03.536Z,14.03
2023-01-01T11:42:03.517Z,14.07
2023-01-01T11:43:03.486Z,14.14
2023-01-01T11:44:03.535Z,14.21
2023-01-01T11:45:03.533Z,14.10
2023-01-01T11:46:03.525Z,14.25
2023-01-01T11:47:03.489Z,14.24
2023-01-01T11:48:03.436Z,14.27
2023-01-01T11:49:03.417Z,14.32
2023-01-01T11:50:03.437Z,14.29
2023-01-01T11:51:03.429Z,14.35
2023-01-01T11:52:03.401Z,14.33
2023-01-01T11:53:03.417Z,14.46
2023-01-01T11:54:03.363Z,14.46
2023-01-01T11:55:03.362Z,14.51
2023-01-01T11:56:03.412Z,14.47
2023-01-01T11:57:03.346Z,14.46
2023-01-01T11:58:03.329Z,14.57
2023-01-01T11:59:03.303Z,14.47
2023-01-01T12:00:03.330Z,14.55
2023-01-01T12:01:03.438Z,14.47
2023-01-01T12:02:03.296Z,14.45
2023-01-01T12:03:03.280Z,14.47
2023-01-01T12:04:03.480Z,14.43
2023-01-01T12:05:03.250Z,14.51
2023-01-01T12:06:03.230Z,14.46
2023-01-01T12:07:03.243Z,14.55
2023-01-01T12:08:03.223Z,14.60
2023-01-01T12:09:03.209Z,14.64
2023-01-01T12:10:03.203Z,14.64
2023-01-01T12:11:03.172Z,14.64
2023-01-01T12:12:03.302Z,14.68
2023-01-01T12:13:03.149Z,14.68
2023-01-01T12:14:03.156Z,14.61
2023-01-01T12:15:03.155Z,14.68
2023-01-01T12:16:03.177Z,14.58
2023-01-01T12:17:03.177Z,14.46
2023-01-01T12:18:03.112Z,14.62
2023-01-01T12:19:03.091Z,14.47
2023-01-01T12:20:03.112Z,14.57
2023-01-01T12:21:03.057Z,14.61
2023-01-01T12:22:03.045Z,14.61
2023-01-01T12:23:03.081Z,14.62
2023-01-01T12:24:03.024Z,14.64
2023-01-01T12:25:03.030Z,14.73
2023-01-01T12:26:03.030Z,14.78
2023-01-01T12:27:08.769Z,14.75
2023-01-01T12:28:04.054Z,14.81
2023-01-01T12:29:02.996Z,14.65
2023-01-01T12:30:02.971Z,14.64
2023-01-01T12:31:03.074Z,14.55
2023-01-01T12:32:02.968Z,14.65
2023-01-01T12:33:07.926Z,14.62
2023-01-01T12:34:03.995Z,14.61
2023-01-01T12:35:02.898Z,14.64
2023-01-01T12:36:02.901Z,14.58
2023-01-01T12:37:02.907Z,14.50
2023-01-01T12:38:02.915Z,14.42
2023-01-01T12:39:02.851Z,14.50
2023-01-01T12:40:03.755Z,14.54
2023-01-01T12:41:02.845Z,14.43
2023-01-01T12:42:02.855Z,14.57
2023-01-01T12:43:02.839Z,14.62
2023-01-01T12:44:02.845Z,14.61
2023-01-01T12:45:02.783Z,14.57
2023-01-01T12:46:02.868Z,14.69
2023-01-01T12:47:02.773Z,14.58
2023-01-01T12:48:02.765Z,14.55
2023-01-01T12:49:02.781Z,14.60
2023-01-01T12:50:02.776Z,14.60
2023-01-01T12:51:05.430Z,14.69
2023-01-01T12:52:02.723Z,14.73
2023-01-01T12:53:02.710Z,14.65
2023-01-01T12:54:02.705Z,14.69
2023-01-01T12:55:02.708Z,14.60
2023-01-01T12:56:02.661Z,14.73
2023-01-01T12:57:02.688Z,14.81
2023-01-01T12:58:02.660Z,14.78
2023-01-01T12:59:02.639Z,14.77
2023-01-01T13:00:02.663Z,14.86
2023-01-01T13:01:02.695Z,14.83
2023-01-01T13:02:02.759Z,14.80
2023-01-01T13:03:02.670Z,14.81
2023-01-01T13:04:02.587Z,14.84
2023-01-01T13:05:02.582Z,14.89
2023-01-01T13:06:02.591Z,14.77
2023-01-01T13:07:02.539Z,14.92
2023-01-01T13:08:02.530Z,14.83
2023-01-01T13:09:02.519Z,14.78
2023-01-01T13:10:02.573Z,14.83
2023-01-01T13:11:02.547Z,14.80
2023-01-01T13:12:02.479Z,14.80
2023-01-01T13:13:02.473Z,14.75
2023-01-01T13:14:02.571Z,14.70